createdAt,value
2023-05-03T00:00:12.447Z,101818.13
2023-05-03T00:02:40.223Z,101825.81
2023-05-03T00:05:12.485Z,101831.84
2023-05-03T00:07:43.360Z,101833.47
2023-05-03T00:10:12.892Z,101831.50
2023-05-03T00:12:40.674Z,101825.25
2023-05-03T00:15:08.627Z,101825.13
2023-05-03T00:17:35.631Z,101828.38
2023-05-03T00:20:04.537Z,101819.38
2023-05-03T00:22:32.272Z,101831.50
2023-05-03T00:24:59.855Z,101826.91
2023-05-03T00:27:26.460Z,101825.91
2023-05-03T00:29:53.150Z,101826.69
2023-05-03T00:32:22.639Z,101822.09
2023-05-03T00:34:54.238Z,101822.00
2023-05-03T00:37:21.238Z,101818.31
2023-05-03T00:39:48.209Z,101821.66
2023-05-03T00:42:14.840Z,101821.59
2023-05-03T00:44:41.636Z,101819.69
2023-05-03T00:47:08.909Z,101822.16
2023-05-03T00:49:35.724Z,101816.75
2023-05-03T00:52:02.786Z,101813.94
2023-05-03T00:54:30.431Z,101813.69
2023-05-03T00:56:57.148Z,101818.69
2023-05-03T00:59:23.871Z,101814.19
2023-05-03T01:01:53.015Z,101807.03
2023-05-03T01:04:21.633Z,101809.50
2023-05-03T01:07:19.081Z,101812.84
2023-05-03T01:09:53.459Z,101817.94
2023-05-03T01:13:04.826Z,101816.88
2023-05-03T01:15:31.441Z,101820.19
2023-05-03T01:18:01.598Z,101819.13
2023-05-03T01:20:30.898Z,101818.06
2023-05-03T01:23:05.279Z,101823.13
2023-05-03T01:25:32.669Z,101820.25
2023-05-03T01:27:59.232Z,101818.38
2023-05-03T01:30:28.012Z,101819.91
2023-05-03T01:33:05.969Z,101819.72
2023-05-03T01:35:44.562Z,101818.66
2023-05-03T01:38:13.157Z,101828.06
2023-05-03T01:40:52.877Z,101825.19
2023-05-03T01:43:21.037Z,101819.81
2023-05-03T01:45:48.327Z,101823.19
2023-05-03T01:48:16.638Z,101815.25
2023-05-03T01:50:43.184Z,101832.59
2023-05-03T01:53:09.712Z,101827.28
2023-05-03T01:55:36.384Z,101829.69
2023-05-03T01:58:03.091Z,101830.44
2023-05-03T02:00:29.633Z,101824.13
2023-05-03T02:02:57.013Z,101828.28
2023-05-03T02:05:23.845Z,101834.22
2023-05-03T02:07:50.468Z,101829.72
2023-05-03T02:10:17.371Z,101827.75
2023-05-03T02:12:44.792Z,101842.47
2023-05-03T02:15:12.511Z,101830.91
2023-05-03T02:17:39.502Z,101839.56
2023-05-03T02:20:06.864Z,101838.56
2023-05-03T02:22:33.439Z,101840.19
2023-05-03T02:24:59.944Z,101834.94
2023-05-03T02:27:26.454Z,101848.84
2023-05-03T02:29:53.216Z,101846.16
2023-05-03T02:32:20.981Z,101845.97
2023-05-03T02:34:49.398Z,101852.00
2023-05-03T02:37:20.036Z,101853.63
2023-05-03T02:39:47.234Z,101844.88
2023-05-03T02:42:15.238Z,101849.22
2023-05-03T02:44:43.631Z,101849.03
2023-05-03T02:47:10.453Z,101847.22
2023-05-03T02:49:40.089Z,101850.66
2023-05-03T02:52:06.922Z,101851.47
2023-05-03T02:54:33.583Z,101848.75
2023-05-03T02:57:05.148Z,101845.16
2023-05-03T02:59:32.891Z,101853.69
2023-05-03T03:02:00.462Z,101845.69
2023-05-03T03:04:27.326Z,101851.75
2023-05-03T03:06:54.005Z,101850.75
2023-05-03T03:09:20.650Z,101847.91
2023-05-03T03:11:47.141Z,101842.50
2023-05-03T03:14:14.416Z,101855.59
2023-05-03T03:16:40.998Z,101858.19
2023-05-03T03:19:07.546Z,101858.03
2023-05-03T03:21:36.100Z,101862.44
2023-05-03T03:24:03.910Z,101862.25
2023-05-03T03:26:30.682Z,101861.44
2023-05-03T03:28:58.306Z,101857.13
2023-05-03T03:31:25.925Z,101858.03
2023-05-03T03:33:54.926Z,101860.91
2023-05-03T03:36:23.123Z,101866.69
2023-05-03T03:38:49.688Z,101871.78
2023-05-03T03:41:16.305Z,101866.28
2023-05-03T03:43:43.945Z,101869.44
2023-05-03T03:46:16.651Z,101872.50
2023-05-03T03:48:43.653Z,101875.41
2023-05-03T03:51:11.371Z,101876.59
2023-05-03T03:53:44.019Z,101875.97
2023-05-03T03:56:10.780Z,101876.13
2023-05-03T03:58:37.534Z,101877.13
2023-05-03T04:01:07.547Z,101879.91
2023-05-03T04:03:34.481Z,101884.53
2023-05-03T04:06:01.439Z,101893.47
2023-05-03T04:08:28.848Z,101880.44
2023-05-03T04:10:55.476Z,101880.44
2023-05-03T04:13:22.151Z,101883.81
2023-05-03T04:15:55.359Z,101878.44
2023-05-03T04:18:22.899Z,101876.66
2023-05-03T04:20:50.161Z,101873.22
2023-05-03T04:23:16.920Z,101886.59
2023-05-03T04:25:46.969Z,101884.88
2023-05-03T04:28:15.219Z,101885.75
2023-05-03T04:30:47.423Z,101879.81
2023-05-03T04:33:17.479Z,101886.22
2023-05-03T04:35:44.181Z,101885.75
2023-05-03T04:38:14.676Z,101891.50
2023-05-03T04:40:41.329Z,101891.25
2023-05-03T04:43:09.819Z,101891.00
2023-05-03T04:45:40.919Z,101889.00
2023-05-03T04:48:10.622Z,101891.16
2023-05-03T04:50:37.255Z,101887.22
2023-05-03T04:53:06.618Z,101887.66
2023-05-03T04:55:36.525Z,101883.56
2023-05-03T04:58:04.492Z,101890.13
2023-05-03T05:00:31.026Z,101892.28
2023-05-03T05:03:03.853Z,101886.53
2023-05-03T05:05:31.198Z,101900.00
2023-05-03T05:07:59.359Z,101894.06
2023-05-03T05:10:30.200Z,101893.41
2023-05-03T05:12:58.217Z,101901.63
2023-05-03T05:15:25.179Z,101894.06
2023-05-03T05:17:51.991Z,101904.75
2023-05-03T05:20:20.125Z,101901.28
2023-05-03T05:22:49.717Z,101902.56
2023-05-03T05:25:16.342Z,101911.88
2023-05-03T05:27:43.399Z,101904.47
2023-05-03T05:30:10.132Z,101917.34
2023-05-03T05:32:39.853Z,101922.34
2023-05-03T05:35:09.511Z,101925.34
2023-05-03T05:37:36.443Z,101924.88
2023-05-03T05:40:05.895Z,101930.25
2023-05-03T05:42:37.902Z,101925.16
2023-05-03T05:45:05.435Z,101928.69
2023-05-03T05:47:32.513Z,101928.28
2023-05-03T05:49:59.405Z,101935.25
2023-05-03T05:52:26.252Z,101932.63
2023-05-03T05:54:52.950Z,101929.00
2023-05-03T05:57:21.088Z,101934.47
2023-05-03T05:59:47.939Z,101941.47
2023-05-03T06:02:18.695Z,101943.88
2023-05-03T06:04:46.902Z,101943.81
2023-05-03T06:07:14.976Z,101946.34
2023-05-03T06:09:41.502Z,101947.16
2023-05-03T06:12:08.227Z,101947.22
2023-05-03T06:14:37.412Z,101953.47
2023-05-03T06:17:04.444Z,101947.63
2023-05-03T06:19:31.150Z,101943.75
2023-05-03T06:21:57.800Z,101943.16
2023-05-03T06:24:24.512Z,101953.88
2023-05-03T06:26:54.128Z,101962.22
2023-05-03T06:29:20.845Z,101960.03
2023-05-03T06:31:47.370Z,101951.41
2023-05-03T06:34:20.060Z,101968.25
2023-05-03T06:36:46.641Z,101964.78
2023-05-03T06:39:13.217Z,101964.84
2023-05-03T06:41:39.678Z,101962.47
2023-05-03T06:44:07.356Z,101955.63
2023-05-03T06:46:34.005Z,101959.38
2023-05-03T06:49:00.627Z,101953.50
2023-05-03T06:51:29.529Z,101958.22
2023-05-03T06:54:06.650Z,101962.19
2023-05-03T06:56:36.516Z,101964.41
2023-05-03T06:59:03.980Z,101956.06
2023-05-03T07:01:34.182Z,101959.06
2023-05-03T07:04:01.182Z,101964.59
2023-05-03T07:06:27.907Z,101959.56
2023-05-03T07:08:54.645Z,101963.31
2023-05-03T07:11:24.806Z,101952.34
2023-05-03T07:13:52.336Z,101960.66
2023-05-03T07:16:19.778Z,101961.06
2023-05-03T07:18:47.534Z,101958.84
2023-05-03T07:21:14.987Z,101957.75
2023-05-03T07:23:41.917Z,101964.38
2023-05-03T07:26:08.590Z,101951.69
2023-05-03T07:28:35.339Z,101959.47
2023-05-03T07:31:04.637Z,101950.88
2023-05-03T07:33:34.579Z,101947.50
2023-05-03T07:36:01.279Z,101946.78
2023-05-03T07:38:27.782Z,101957.59
2023-05-03T07:40:54.315Z,101955.78
2023-05-03T07:43:23.550Z,101953.03
2023-05-03T07:45:50.088Z,101947.53
2023-05-03T07:48:16.576Z,101939.97
2023-05-03T07:50:44.126Z,101939.50
2023-05-03T07:53:11.689Z,101941.69
2023-05-03T07:55:38.482Z,101956.19
2023-05-03T07:58:05.095Z,101946.91
2023-05-03T08:00:31.666Z,101935.78
2023-05-03T08:02:58.223Z,101945.94
2023-05-03T08:05:24.942Z,101947.75
2023-05-03T08:07:51.535Z,101949.03
2023-05-03T08:10:18.062Z,101947.66
2023-05-03T08:12:45.627Z,101939.38
2023-05-03T08:15:12.291Z,101946.84
2023-05-03T08:17:45.808Z,101937.66
2023-05-03T08:20:13.477Z,101948.78
2023-05-03T08:22:41.324Z,101951.94
2023-05-03T08:25:08.457Z,101949.72
2023-05-03T08:27:35.131Z,101950.94
2023-05-03T08:30:02.489Z,101947.63
2023-05-03T08:32:30.465Z,101946.00
2023-05-03T08:34:57.082Z,101947.69
2023-05-03T08:37:23.876Z,101943.06
2023-05-03T08:39:50.423Z,101954.38
2023-05-03T08:42:16.964Z,101951.66
2023-05-03T08:44:51.009Z,101945.78
2023-05-03T08:47:17.542Z,101949.00
2023-05-03T08:49:44.630Z,101947.88
2023-05-03T08:52:14.035Z,101952.59
2023-05-03T08:54:41.547Z,101951.94
2023-05-03T08:57:14.534Z,101952.97
2023-05-03T08:59:53.531Z,101948.03
2023-05-03T09:02:20.408Z,101945.63
2023-05-03T09:04:47.094Z,101949.72
2023-05-03T09:07:15.868Z,101949.34
2023-05-03T09:09:45.626Z,101940.09
2023-05-03T09:12:33.761Z,101949.13
2023-05-03T09:15:00.957Z,101944.56
2023-05-03T09:17:27.475Z,101937.25
2023-05-03T09:19:56.588Z,101951.34
2023-05-03T09:22:28.018Z,101947.69
2023-05-03T09:24:58.554Z,101950.03
2023-05-03T09:27:26.781Z,101953.50
2023-05-03T09:29:54.250Z,101953.25
2023-05-03T09:32:22.944Z,101948.25
2023-05-03T09:34:49.525Z,101953.66
2023-05-03T09:37:16.458Z,101951.84
2023-05-03T09:39:45.946Z,101960.00
2023-05-03T09:42:17.112Z,101969.19
2023-05-03T09:44:49.072Z,101956.53
2023-05-03T09:47:16.043Z,101961.91
2023-05-03T09:49:43.553Z,101954.69
2023-05-03T09:52:11.074Z,101949.72
2023-05-03T09:54:38.735Z,101952.41
2023-05-03T09:57:06.680Z,101955.28
2023-05-03T09:59:34.743Z,101945.06
2023-05-03T10:02:04.074Z,101951.84
2023-05-03T10:04:38.946Z,101944.06
2023-05-03T10:07:10.651Z,101950.75
2023-05-03T10:09:47.282Z,101948.53
2023-05-03T10:12:17.483Z,101940.09
2023-05-03T10:14:48.662Z,101937.13
2023-05-03T10:17:42.930Z,101938.47
2023-05-03T10:20:20.772Z,101931.84
2023-05-03T10:23:09.500Z,101931.34
2023-05-03T10:25:37.551Z,101930.78
2023-05-03T10:28:06.049Z,101928.16
2023-05-03T10:30:37.277Z,101928.13
2023-05-03T10:33:12.638Z,101919.34
2023-05-03T10:35:41.340Z,101925.69
2023-05-03T10:38:17.945Z,101921.31
2023-05-03T10:40:44.550Z,101922.31
2023-05-03T10:43:32.122Z,101913.41
2023-05-03T10:45:59.729Z,101915.94
2023-05-03T10:48:26.745Z,101912.38
2023-05-03T10:50:53.277Z,101914.13
2023-05-03T10:53:40.064Z,101914.16
2023-05-03T10:56:13.941Z,101914.19
2023-05-03T10:58:45.223Z,101906.16
2023-05-03T11:01:13.974Z,101904.44
2023-05-03T11:03:50.033Z,101900.84
2023-05-03T11:06:37.009Z,101909.75
2023-05-03T11:09:08.664Z,101902.75
2023-05-03T11:11:37.097Z,101896.56
2023-05-03T11:14:05.751Z,101901.09
2023-05-03T11:16:32.474Z,101890.47
2023-05-03T11:18:59.889Z,101896.59
2023-05-03T11:21:26.445Z,101884.22
2023-05-03T11:23:53.029Z,101894.81
2023-05-03T11:26:23.566Z,101890.28
2023-05-03T11:28:50.105Z,101889.34
2023-05-03T11:31:16.793Z,101883.16
2023-05-03T11:33:43.626Z,101872.66
2023-05-03T11:36:10.647Z,101875.47
2023-05-03T11:38:38.840Z,101873.81
2023-05-03T11:41:17.480Z,101875.50
2023-05-03T11:43:54.909Z,101874.59
2023-05-03T11:46:27.778Z,101874.59
2023-05-03T11:48:54.841Z,101859.59
2023-05-03T11:51:22.815Z,101867.66
2023-05-03T11:53:49.809Z,101858.78
2023-05-03T11:56:20.666Z,101852.63
2023-05-03T11:58:58.719Z,101851.84
2023-05-03T12:01:27.553Z,101856.38
2023-05-03T12:03:59.445Z,101850.06
2023-05-03T12:06:28.884Z,101851.78
2023-05-03T12:08:57.356Z,101848.19
2023-05-03T12:11:27.118Z,101855.31
2023-05-03T12:13:58.900Z,101852.72
2023-05-03T12:16:27.037Z,101858.09
2023-05-03T12:19:03.256Z,101852.00
2023-05-03T12:24:20.394Z,101853.03
2023-05-03T12:26:48.917Z,101847.69
2023-05-03T12:29:17.992Z,101845.91
2023-05-03T12:31:49.154Z,101836.19
2023-05-03T12:34:32.797Z,101838.03
2023-05-03T12:37:04.849Z,101829.19
2023-05-03T12:39:33.013Z,101830.16
2023-05-03T12:44:33.176Z,101828.81
2023-05-03T12:47:01.762Z,101827.31
2023-05-03T12:49:29.041Z,101824.00
2023-05-03T12:52:23.831Z,101824.13
2023-05-03T12:54:48.789Z,101823.38
2023-05-03T12:57:22.581Z,101813.69
2023-05-03T12:59:53.934Z,101804.84
2023-05-03T13:05:00.478Z,101804.94
2023-05-03T13:07:30.714Z,101794.38
2023-05-03T13:12:28.625Z,101775.78
2023-05-03T13:14:55.851Z,101782.91
2023-05-03T13:17:23.216Z,101776.81
2023-05-03T13:19:51.387Z,101767.13
2023-05-03T13:22:18.381Z,101774.31
2023-05-03T13:24:46.604Z,101766.41
2023-05-03T13:27:13.930Z,101771.78
2023-05-03T13:29:41.196Z,101775.44
2023-05-03T13:32:08.583Z,101766.63
2023-05-03T13:34:36.487Z,101766.72
2023-05-03T13:37:04.289Z,101759.69
2023-05-03T13:39:31.162Z,101762.44
2023-05-03T13:41:57.658Z,101759.06
2023-05-03T13:44:25.465Z,101756.56
2023-05-03T13:46:52.561Z,101746.09
2023-05-03T13:49:19.624Z,101748.91
2023-05-03T13:51:46.208Z,101742.88
2023-05-03T13:54:12.779Z,101739.34
2023-05-03T13:56:40.371Z,101735.91
2023-05-03T13:59:08.410Z,101740.47
2023-05-03T14:01:36.130Z,101730.75
2023-05-03T14:04:03.695Z,101730.81
2023-05-03T14:06:33.373Z,101725.53
2023-05-03T14:09:01.582Z,101729.16
2023-05-03T14:11:29.803Z,101727.50
2023-05-03T14:13:57.832Z,101722.22
2023-05-03T14:18:56.050Z,101724.94
2023-05-03T14:21:22.779Z,101732.03
2023-05-03T14:23:52.457Z,101724.94
2023-05-03T14:26:20.004Z,101724.16
2023-05-03T14:28:47.132Z,101719.75
2023-05-03T14:31:13.822Z,101719.78
2023-05-03T14:33:40.392Z,101719.78
2023-05-03T14:36:11.903Z,101720.63
2023-05-03T14:38:38.476Z,101713.53
2023-05-03T14:41:05.090Z,101724.25
2023-05-03T14:43:32.341Z,101710.94
2023-05-03T14:45:58.885Z,101711.81
2023-05-03T14:48:25.386Z,101706.53
2023-05-03T14:50:52.611Z,101709.28
2023-05-03T14:53:19.248Z,101708.47
2023-05-03T14:55:46.466Z,101712.06
2023-05-03T14:58:13.418Z,101707.66
2023-05-03T15:00:40.927Z,101694.38
2023-05-03T15:03:11.592Z,101690.00
2023-05-03T15:05:45.725Z,101692.72
2023-05-03T15:08:15.134Z,101696.31
2023-05-03T15:10:44.353Z,101694.56
2023-05-03T15:13:15.532Z,101696.41
2023-05-03T15:15:46.030Z,101692.06
2023-05-03T15:18:14.485Z,101686.84
2023-05-03T15:20:41.340Z,101679.88
2023-05-03T15:23:08.134Z,101685.38
2023-05-03T15:25:35.511Z,101680.13
2023-05-03T15:28:04.323Z,101685.69
2023-05-03T15:30:32.680Z,101682.78
2023-05-03T15:32:59.570Z,101690.38
2023-05-03T15:35:26.177Z,101679.88
2023-05-03T15:37:52.717Z,101677.91
2023-05-03T15:40:23.065Z,101677.69
2023-05-03T15:42:51.862Z,101672.81
2023-05-03T15:45:19.110Z,101668.63
2023-05-03T15:47:46.175Z,101671.75
2023-05-03T15:50:12.809Z,101671.75
2023-05-03T15:52:39.323Z,101663.84
2023-05-03T15:55:07.065Z,101671.34
2023-05-03T15:57:33.772Z,101675.25
2023-05-03T16:00:00.316Z,101674.19
2023-05-03T16:02:27.161Z,101663.28
2023-05-03T16:04:53.857Z,101660.41
2023-05-03T16:07:20.568Z,101658.31
2023-05-03T16:09:47.076Z,101662.44
2023-05-03T16:12:13.960Z,101671.09
2023-05-03T16:14:40.512Z,101669.72
2023-05-03T16:17:07.048Z,101668.88
2023-05-03T16:19:33.929Z,101660.88
2023-05-03T16:22:00.727Z,101664.38
2023-05-03T16:24:28.404Z,101653.50
2023-05-03T16:26:55.069Z,101660.88
2023-05-03T16:29:22.051Z,101658.94
2023-05-03T16:31:49.552Z,101665.41
2023-05-03T16:34:16.737Z,101660.66
2023-05-03T16:36:44.073Z,101652.72
2023-05-03T16:39:14.551Z,101655.53
2023-05-03T16:41:41.629Z,101649.44
2023-05-03T16:44:08.624Z,101651.09
2023-05-03T16:46:36.573Z,101642.00
2023-05-03T16:49:03.755Z,101642.75
2023-05-03T16:51:31.689Z,101636.41
2023-05-03T16:53:59.081Z,101639.06
2023-05-03T16:56:26.309Z,101642.50
2023-05-03T16:58:53.354Z,101647.59
2023-05-03T17:01:20.054Z,101632.47
2023-05-03T17:03:46.682Z,101643.19
2023-05-03T17:06:13.591Z,101637.38
2023-05-03T17:08:40.245Z,101641.78
2023-05-03T17:11:09.149Z,101640.31
2023-05-03T17:13:36.740Z,101633.06
2023-05-03T17:16:11.742Z,101632.41
2023-05-03T17:18:40.271Z,101627.59
2023-05-03T17:21:08.796Z,101633.13
2023-05-03T17:23:38.516Z,101639.63
2023-05-03T17:26:08.318Z,101637.53
2023-05-03T17:28:35.840Z,101641.63
2023-05-03T17:31:03.211Z,101635.88
2023-05-03T17:33:30.065Z,101641.53
2023-05-03T17:35:59.054Z,101639.84
2023-05-03T17:38:25.520Z,101630.97
2023-05-03T17:40:52.063Z,101639.28
2023-05-03T17:43:19.170Z,101630.59
2023-05-03T17:45:51.364Z,101623.91
2023-05-03T17:48:17.880Z,101628.81
2023-05-03T17:50:46.403Z,101634.50
2023-05-03T17:53:13.070Z,101627.75
2023-05-03T17:55:39.621Z,101623.25
2023-05-03T17:58:06.483Z,101630.31
2023-05-03T18:00:33.707Z,101630.59
2023-05-03T18:03:01.275Z,101628.81
2023-05-03T18:05:35.348Z,101625.06
2023-05-03T18:08:04.019Z,101622.13
2023-05-03T18:10:31.187Z,101619.00
2023-05-03T18:12:58.574Z,101623.00
2023-05-03T18:15:25.243Z,101623.34
2023-05-03T18:17:53.472Z,101620.03
2023-05-03T18:20:23.610Z,101616.59
2023-05-03T18:22:50.277Z,101622.13
2023-05-03T18:25:17.743Z,101620.47
2023-05-03T18:27:44.531Z,101619.59
2023-05-03T18:30:11.682Z,101633.03
2023-05-03T18:32:38.300Z,101629.47
2023-05-03T18:35:05.357Z,101625.00
2023-05-03T18:37:31.984Z,101632.06
2023-05-03T18:40:00.925Z,101630.22
2023-05-03T18:42:27.487Z,101631.91
2023-05-03T18:44:54.420Z,101630.06
2023-05-03T18:47:21.786Z,101627.25
2023-05-03T18:50:01.251Z,101636.03
2023-05-03T18:52:27.919Z,101627.91
2023-05-03T18:54:54.515Z,101622.41
2023-05-03T18:57:21.147Z,101631.13
2023-05-03T18:59:59.356Z,101618.53
2023-05-03T19:02:30.450Z,101622.75
2023-05-03T19:04:59.346Z,101626.13
2023-05-03T19:07:26.064Z,101631.25
2023-05-03T19:09:58.222Z,101626.63
2023-05-03T19:12:25.425Z,101629.06
2023-05-03T19:14:52.026Z,101627.97
2023-05-03T19:17:18.528Z,101639.28
2023-05-03T19:19:45.132Z,101631.03
2023-05-03T19:22:11.689Z,101639.72
2023-05-03T19:24:39.972Z,101639.50
2023-05-03T19:27:06.437Z,101640.16
2023-05-03T19:29:33.000Z,101639.91
2023-05-03T19:31:59.858Z,101645.00
2023-05-03T19:34:28.183Z,101642.97
2023-05-03T19:36:54.786Z,101646.31
2023-05-03T19:39:21.294Z,101646.06
2023-05-03T19:41:48.873Z,101641.44
2023-05-03T19:44:16.017Z,101646.47
2023-05-03T19:46:42.664Z,101654.22
2023-05-03T19:49:09.159Z,101650.44
2023-05-03T19:51:35.691Z,101647.56
2023-05-03T19:54:03.170Z,101653.53
2023-05-03T19:56:29.774Z,101649.75
2023-05-03T19:58:56.683Z,101655.75
2023-05-03T20:01:23.744Z,101651.09
2023-05-03T20:03:53.511Z,101648.31
2023-05-03T20:06:20.913Z,101646.28
2023-05-03T20:08:47.631Z,101646.94
2023-05-03T20:11:15.270Z,101652.03
2023-05-03T20:13:44.741Z,101649.09
2023-05-03T20:16:11.354Z,101651.56
2023-05-03T20:18:38.518Z,101659.25
2023-05-03T20:21:05.524Z,101651.13
2023-05-03T20:23:32.497Z,101656.19
2023-05-03T20:25:59.382Z,101659.53
2023-05-03T20:28:25.957Z,101659.31
2023-05-03T20:30:54.526Z,101654.63
2023-05-03T20:33:21.067Z,101656.13
2023-05-03T20:35:48.414Z,101659.41
2023-05-03T20:38:15.536Z,101665.31
2023-05-03T20:40:43.770Z,101658.03
2023-05-03T20:43:10.920Z,101663.09
2023-05-03T20:45:37.524Z,101661.09
2023-05-03T20:48:04.299Z,101661.75
2023-05-03T20:50:31.074Z,101659.78
2023-05-03T20:52:59.956Z,101660.44
2023-05-03T20:55:27.740Z,101655.88
2023-05-03T20:57:56.744Z,101649.47
2023-05-03T21:00:24.950Z,101658.06
2023-05-03T21:02:54.497Z,101649.94
2023-05-03T21:05:21.919Z,101646.13
2023-05-03T21:07:48.695Z,101649.47
2023-05-03T21:10:15.490Z,101645.75
2023-05-03T21:12:42.095Z,101643.81
2023-05-03T21:15:09.366Z,101652.50
2023-05-03T21:17:38.469Z,101647.13
2023-05-03T21:20:05.970Z,101644.31
2023-05-03T21:22:34.683Z,101639.78
2023-05-03T21:25:02.016Z,101638.72
2023-05-03T21:27:30.249Z,101639.50
2023-05-03T21:29:56.728Z,101635.84
2023-05-03T21:32:23.512Z,101638.31
2023-05-03T21:34:49.996Z,101639.06
2023-05-03T21:37:16.868Z,101646.91
2023-05-03T21:39:57.767Z,101636.13
2023-05-03T21:42:28.010Z,101639.50
2023-05-03T21:44:54.573Z,101634.94
2023-05-03T21:47:22.260Z,101633.81
2023-05-03T21:49:48.858Z,101637.19
2023-05-03T21:52:15.389Z,101631.75
2023-05-03T21:54:43.505Z,101628.00
2023-05-03T21:57:10.069Z,101623.41
2023-05-03T21:59:36.536Z,101628.47
2023-05-03T22:02:03.379Z,101629.16
2023-05-03T22:04:30.865Z,101628.91
2023-05-03T22:06:57.431Z,101633.13
2023-05-03T22:09:24.738Z,101632.03
2023-05-03T22:11:51.348Z,101630.06
2023-05-03T22:14:17.855Z,101627.25
2023-05-03T22:16:44.423Z,101626.13
2023-05-03T22:19:12.147Z,101630.34
2023-05-03T22:21:38.716Z,101623.09
2023-05-03T22:24:05.608Z,101621.19
2023-05-03T22:26:32.105Z,101621.00
2023-05-03T22:28:58.827Z,101612.97
2023-05-03T22:31:26.654Z,101614.56
2023-05-03T22:33:53.565Z,101630.25
2023-05-03T22:36:20.166Z,101621.25
2023-05-03T22:38:46.962Z,101617.59
2023-05-03T22:41:13.698Z,101613.09
2023-05-03T22:43:40.127Z,101614.66
2023-05-03T22:46:08.977Z,101610.25
2023-05-03T22:48:35.931Z,101605.66
2023-05-03T22:51:02.866Z,101606.50
2023-05-03T22:53:30.353Z,101603.78
2023-05-03T22:56:04.049Z,101597.53
2023-05-03T22:58:30.788Z,101600.94
2023-05-03T23:00:57.440Z,101604.47
2023-05-03T23:03:24.421Z,101600.94
2023-05-03T23:05:54.727Z,101597.41
2023-05-03T23:08:22.268Z,101595.63
2023-05-03T23:10:48.736Z,101592.94
2023-05-03T23:13:15.416Z,101600.84
2023-05-03T23:15:42.121Z,101598.13
2023-05-03T23:18:08.761Z,101590.25
2023-05-03T23:20:35.379Z,101589.31
2023-05-03T23:23:02.118Z,101588.41
2023-05-03T23:25:28.881Z,101591.00
2023-05-03T23:27:56.000Z,101595.38
2023-05-03T23:30:23.024Z,101588.25
2023-05-03T23:32:50.086Z,101587.28
2023-05-03T23:35:17.216Z,101593.34
2023-05-03T23:37:43.760Z,101598.50
2023-05-03T23:40:10.692Z,101587.94
2023-05-03T23:42:39.632Z,101585.19
2023-05-03T23:45:10.041Z,101589.50
2023-05-03T23:47:36.893Z,101585.84
2023-05-03T23:50:04.553Z,101583.09
2023-05-03T23:52:31.581Z,101581.16
2023-05-03T23:54:58.149Z,101579.31
2023-05-03T23:57:24.656Z,101578.34
2023-05-03T23:59:51.261Z,101577.34
